createdAt,value
2019-02-12T07:35:20.084Z,71.86
2019-02-12T07:35:46.723Z,69.42
2019-02-12T07:37:17.187Z,67.51
2019-02-12T07:38:09.887Z,65.92
2019-02-12T07:39:04.170Z,65.58
2019-02-12T22:16:47.426Z,86.33
2019-02-12T22:17:36.909Z,86.52
2019-02-12T22:22:39.183Z,86.43
2019-02-12T22:23:37.733Z,86.80
2019-02-12T22:27:58.079Z,86.99
2019-02-12T22:28:05.488Z,86.76
2019-02-12T22:28:58.571Z,86.85
2019-02-12T22:29:58.491Z,86.94
2019-02-12T22:30:58.543Z,87.04
2019-02-12T22:31:58.979Z,86.57
2019-02-12T22:32:58.366Z,86.85
2019-02-12T22:33:58.559Z,86.76
2019-02-12T22:34:58.348Z,86.76
2019-02-12T22:35:58.327Z,86.76
2019-02-12T22:36:58.950Z,86.76
2019-02-12T22:37:58.324Z,86.85
2019-02-12T22:38:58.224Z,86.85
2019-02-12T22:39:58.241Z,86.85
2019-02-12T22:40:58.353Z,86.76
2019-02-12T22:41:58.162Z,86.47
2019-02-12T22:42:58.232Z,86.47
2019-02-12T22:43:58.185Z,86.47
2019-02-12T22:44:58.119Z,86.76
2019-02-12T22:45:58.122Z,86.94
2019-02-12T22:46:58.170Z,86.76
2019-02-12T22:47:58.059Z,86.85
2019-02-12T22:48:57.971Z,86.76
2019-02-12T22:49:57.989Z,86.47
2019-02-12T22:50:58.009Z,86.66
2019-02-12T22:51:58.401Z,86.76
2019-02-12T22:52:57.884Z,86.94
2019-02-12T22:53:58.103Z,86.76
2019-02-12T22:54:58.019Z,86.76
2019-02-12T22:55:57.887Z,86.76
2019-02-12T22:56:57.910Z,86.57
2019-02-12T22:57:57.804Z,86.85
2019-02-12T22:58:57.911Z,86.76
2019-02-12T22:59:57.803Z,87.13
2019-02-12T23:00:58.493Z,87.32
2019-02-12T23:01:57.757Z,86.94
2019-02-12T23:02:57.718Z,86.94
2019-02-12T23:03:57.682Z,86.85
2019-02-12T23:04:57.737Z,87.42
2019-02-12T23:05:57.710Z,87.32
2019-02-12T23:06:58.456Z,87.23
2019-02-12T23:07:57.664Z,87.51
2019-02-12T23:08:57.710Z,87.42
2019-02-12T23:09:57.587Z,87.42
2019-02-12T23:10:57.653Z,87.42
2019-02-12T23:11:57.535Z,87.23
2019-02-12T23:12:57.519Z,87.32
2019-02-12T23:13:57.506Z,87.42
2019-02-12T23:14:57.557Z,87.23
2019-02-12T23:15:57.446Z,87.51
2019-02-12T23:16:57.482Z,87.61
2019-02-12T23:17:57.445Z,87.42
2019-02-12T23:18:57.383Z,87.51
2019-02-12T23:19:57.417Z,87.13
2019-02-12T23:20:57.367Z,87.51
2019-02-12T23:21:57.329Z,87.42
2019-02-12T23:22:57.193Z,87.51
2019-02-12T23:23:57.193Z,87.51
2019-02-12T23:24:57.994Z,87.61
2019-02-12T23:25:57.209Z,87.51
2019-02-12T23:26:57.126Z,88.27
2019-02-12T23:27:57.824Z,88.27
2019-02-12T23:28:57.086Z,87.89
2019-02-12T23:29:57.088Z,88.08
2019-02-12T23:30:57.133Z,88.17
2019-02-12T23:31:57.354Z,88.17
2019-02-12T23:32:57.055Z,87.98
2019-02-12T23:33:57.062Z,88.08
2019-02-12T23:34:57.425Z,88.08
2019-02-12T23:35:56.973Z,87.89
2019-02-12T23:36:56.956Z,87.70
2019-02-12T23:37:56.913Z,87.79
2019-02-12T23:38:56.890Z,88.27
2019-02-12T23:39:56.873Z,88.08
2019-02-12T23:40:56.848Z,87.98
2019-02-12T23:41:56.782Z,88.08
2019-02-12T23:42:56.810Z,88.08
2019-02-12T23:43:56.719Z,88.08
2019-02-12T23:44:56.840Z,88.36
2019-02-12T23:45:57.383Z,88.55
2019-02-12T23:46:56.708Z,88.36
2019-02-12T23:47:56.653Z,88.36
2019-02-12T23:48:56.729Z,88.74
2019-02-12T23:49:56.641Z,88.93
2019-02-12T23:50:56.642Z,88.55
2019-02-12T23:51:56.657Z,89.12
2019-02-12T23:52:56.583Z,89.22
2019-02-12T23:53:56.599Z,89.31
2019-02-12T23:54:56.498Z,89.03
2019-02-12T23:55:56.579Z,89.03
2019-02-12T23:56:56.523Z,89.97
2019-02-12T23:57:56.488Z,90.35
2019-02-12T23:58:56.718Z,90.44
2019-02-12T23:59:56.469Z,90.35
